sensor_id;sensor_type;location;lat;lon;timestamp;temperature;humidity
9885;DHT22;4981;50.966;4.842;2023-05-21T00:01:04;15.30;1.00
9885;DHT22;4981;50.966;4.842;2023-05-21T00:03:32;15.30;1.00
9885;DHT22;4981;50.966;4.842;2023-05-21T00:06:02;15.40;1.00
9885;DHT22;4981;50.966;4.842;2023-05-21T00:08:29;15.30;1.00
9885;DHT22;4981;50.966;4.842;2023-05-21T00:10:56;15.30;1.00
9885;DHT22;4981;50.966;4.842;2023-05-21T00:13:23;15.20;1.00
9885;DHT22;4981;50.966;4.842;2023-05-21T00:15:50;15.20;1.00
9885;DHT22;4981;50.966;4.842;2023-05-21T00:18:17;15.10;1.00
9885;DHT22;4981;50.966;4.842;2023-05-21T00:20:44;15.20;1.00
9885;DHT22;4981;50.966;4.842;2023-05-21T00:23:13;15.00;1.00
9885;DHT22;4981;50.966;4.842;2023-05-21T00:25:43;14.90;1.00
9885;DHT22;4981;50.966;4.842;2023-05-21T00:28:10;14.80;1.00
9885;DHT22;4981;50.966;4.842;2023-05-21T00:30:37;14.90;1.00
9885;DHT22;4981;50.966;4.842;2023-05-21T00:33:04;14.70;1.00
9885;DHT22;4981;50.966;4.842;2023-05-21T00:35:32;14.80;1.00
9885;DHT22;4981;50.966;4.842;2023-05-21T00:37:59;14.80;1.00
9885;DHT22;4981;50.966;4.842;2023-05-21T00:40:27;14.70;1.00
9885;DHT22;4981;50.966;4.842;2023-05-21T00:42:56;14.60;1.00
9885;DHT22;4981;50.966;4.842;2023-05-21T00:45:23;14.60;1.00
9885;DHT22;4981;50.966;4.842;2023-05-21T00:47:51;14.70;1.00
9885;DHT22;4981;50.966;4.842;2023-05-21T00:50:20;14.70;1.00
9885;DHT22;4981;50.966;4.842;2023-05-21T00:52:47;14.60;1.00
9885;DHT22;4981;50.966;4.842;2023-05-21T00:55:15;14.60;1.00
9885;DHT22;4981;50.966;4.842;2023-05-21T00:57:43;14.60;1.00
9885;DHT22;4981;50.966;4.842;2023-05-21T01:00:12;14.20;1.00
9885;DHT22;4981;50.966;4.842;2023-05-21T01:02:40;14.30;1.00
9885;DHT22;4981;50.966;4.842;2023-05-21T01:05:09;14.30;1.00
9885;DHT22;4981;50.966;4.842;2023-05-21T01:07:38;14.30;1.00
9885;DHT22;4981;50.966;4.842;2023-05-21T01:10:08;14.30;1.00
9885;DHT22;4981;50.966;4.842;2023-05-21T01:12:37;14.30;1.00
9885;DHT22;4981;50.966;4.842;2023-05-21T01:15:08;14.30;1.00
9885;DHT22;4981;50.966;4.842;2023-05-21T01:17:36;14.30;1.00
9885;DHT22;4981;50.966;4.842;2023-05-21T01:20:05;14.30;1.00
9885;DHT22;4981;50.966;4.842;2023-05-21T01:22:37;14.10;1.00
9885;DHT22;4981;50.966;4.842;2023-05-21T01:25:09;14.10;1.00
9885;DHT22;4981;50.966;4.842;2023-05-21T01:27:36;14.20;1.00
9885;DHT22;4981;50.966;4.842;2023-05-21T01:30:04;14.30;1.00
9885;DHT22;4981;50.966;4.842;2023-05-21T01:32:39;14.20;1.00
9885;DHT22;4981;50.966;4.842;2023-05-21T01:35:10;14.10;1.00
9885;DHT22;4981;50.966;4.842;2023-05-21T01:37:45;14.10;1.00
9885;DHT22;4981;50.966;4.842;2023-05-21T01:40:22;14.10;1.00
9885;DHT22;4981;50.966;4.842;2023-05-21T01:42:51;14.20;1.00
9885;DHT22;4981;50.966;4.842;2023-05-21T01:45:19;13.90;1.00
9885;DHT22;4981;50.966;4.842;2023-05-21T01:47:49;13.90;1.00
9885;DHT22;4981;50.966;4.842;2023-05-21T01:50:17;13.90;1.00
9885;DHT22;4981;50.966;4.842;2023-05-21T01:52:48;14.00;1.00
9885;DHT22;4981;50.966;4.842;2023-05-21T01:55:17;13.80;1.00
9885;DHT22;4981;50.966;4.842;2023-05-21T01:57:49;13.90;1.00
9885;DHT22;4981;50.966;4.842;2023-05-21T02:00:18;13.70;1.00
9885;DHT22;4981;50.966;4.842;2023-05-21T02:02:45;13.60;1.00
9885;DHT22;4981;50.966;4.842;2023-05-21T02:05:12;13.70;1.00
9885;DHT22;4981;50.966;4.842;2023-05-21T02:07:39;13.70;1.00
9885;DHT22;4981;50.966;4.842;2023-05-21T02:10:07;14.00;1.00
9885;DHT22;4981;50.966;4.842;2023-05-21T02:12:35;14.00;1.00
9885;DHT22;4981;50.966;4.842;2023-05-21T02:15:02;13.80;1.00
9885;DHT22;4981;50.966;4.842;2023-05-21T02:17:30;13.90;1.00
9885;DHT22;4981;50.966;4.842;2023-05-21T02:19:58;14.00;1.00
9885;DHT22;4981;50.966;4.842;2023-05-21T02:22:35;13.80;1.00
9885;DHT22;4981;50.966;4.842;2023-05-21T02:25:03;13.80;1.00
9885;DHT22;4981;50.966;4.842;2023-05-21T02:27:30;13.90;1.00
9885;DHT22;4981;50.966;4.842;2023-05-21T02:30:00;13.70;1.00
9885;DHT22;4981;50.966;4.842;2023-05-21T02:32:26;13.60;1.00
9885;DHT22;4981;50.966;4.842;2023-05-21T02:34:53;13.60;1.00
9885;DHT22;4981;50.966;4.842;2023-05-21T02:37:21;13.70;1.00
9885;DHT22;4981;50.966;4.842;2023-05-21T02:39:48;13.60;1.00
9885;DHT22;4981;50.966;4.842;2023-05-21T02:42:14;13.60;1.00
9885;DHT22;4981;50.966;4.842;2023-05-21T02:44:41;13.60;1.00
9885;DHT22;4981;50.966;4.842;2023-05-21T02:47:10;13.60;1.00
9885;DHT22;4981;50.966;4.842;2023-05-21T02:49:37;13.60;1.00
9885;DHT22;4981;50.966;4.842;2023-05-21T02:52:04;13.60;1.00
9885;DHT22;4981;50.966;4.842;2023-05-21T02:54:31;13.50;1.00
9885;DHT22;4981;50.966;4.842;2023-05-21T02:56:58;13.60;1.00
9885;DHT22;4981;50.966;4.842;2023-05-21T02:59:26;13.50;1.00
9885;DHT22;4981;50.966;4.842;2023-05-21T03:01:53;13.60;1.00
9885;DHT22;4981;50.966;4.842;2023-05-21T03:04:21;13.50;1.00
9885;DHT22;4981;50.966;4.842;2023-05-21T03:06:48;13.50;1.00
9885;DHT22;4981;50.966;4.842;2023-05-21T03:09:16;13.50;1.00
9885;DHT22;4981;50.966;4.842;2023-05-21T03:11:43;13.30;1.00
9885;DHT22;4981;50.966;4.842;2023-05-21T03:14:10;13.10;1.00
9885;DHT22;4981;50.966;4.842;2023-05-21T03:16:37;13.10;1.00
9885;DHT22;4981;50.966;4.842;2023-05-21T03:19:06;13.10;1.00
9885;DHT22;4981;50.966;4.842;2023-05-21T03:21:34;13.30;1.00
9885;DHT22;4981;50.966;4.842;2023-05-21T03:24:01;13.30;1.00
9885;DHT22;4981;50.966;4.842;2023-05-21T03:26:29;13.20;1.00
9885;DHT22;4981;50.966;4.842;2023-05-21T03:28:56;13.00;1.00
9885;DHT22;4981;50.966;4.842;2023-05-21T03:31:23;13.10;1.00
9885;DHT22;4981;50.966;4.842;2023-05-21T03:33:50;13.10;1.00
9885;DHT22;4981;50.966;4.842;2023-05-21T03:36:18;13.00;1.00
9885;DHT22;4981;50.966;4.842;2023-05-21T03:38:47;13.00;1.00
9885;DHT22;4981;50.966;4.842;2023-05-21T03:41:14;13.10;1.00
9885;DHT22;4981;50.966;4.842;2023-05-21T03:43:41;13.20;1.00
9885;DHT22;4981;50.966;4.842;2023-05-21T03:46:08;13.10;1.00
9885;DHT22;4981;50.966;4.842;2023-05-21T03:48:35;13.10;1.00
9885;DHT22;4981;50.966;4.842;2023-05-21T03:51:02;13.20;1.00
9885;DHT22;4981;50.966;4.842;2023-05-21T03:53:32;13.10;1.00
9885;DHT22;4981;50.966;4.842;2023-05-21T03:56:00;13.10;1.00
9885;DHT22;4981;50.966;4.842;2023-05-21T03:58:27;13.10;1.00
9885;DHT22;4981;50.966;4.842;2023-05-21T04:00:54;13.00;1.00
9885;DHT22;4981;50.966;4.842;2023-05-21T04:03:21;13.20;1.00
9885;DHT22;4981;50.966;4.842;2023-05-21T04:05:48;13.20;1.00
9885;DHT22;4981;50.966;4.842;2023-05-21T04:08:16;13.20;1.00
9885;DHT22;4981;50.966;4.842;2023-05-21T04:10:43;13.00;1.00
9885;DHT22;4981;50.966;4.842;2023-05-21T04:13:11;12.90;1.00
9885;DHT22;4981;50.966;4.842;2023-05-21T04:15:38;12.90;1.00
9885;DHT22;4981;50.966;4.842;2023-05-21T04:18:05;12.90;1.00
9885;DHT22;4981;50.966;4.842;2023-05-21T04:20:32;12.90;1.00
9885;DHT22;4981;50.966;4.842;2023-05-21T04:22:59;13.00;1.00
9885;DHT22;4981;50.966;4.842;2023-05-21T04:25:27;13.10;1.00
9885;DHT22;4981;50.966;4.842;2023-05-21T04:27:54;13.00;1.00
9885;DHT22;4981;50.966;4.842;2023-05-21T04:30:23;13.00;1.00
9885;DHT22;4981;50.966;4.842;2023-05-21T04:32:50;12.90;1.00
9885;DHT22;4981;50.966;4.842;2023-05-21T04:35:17;13.00;1.00
9885;DHT22;4981;50.966;4.842;2023-05-21T04:37:44;13.00;1.00
9885;DHT22;4981;50.966;4.842;2023-05-21T04:40:12;13.10;1.00
9885;DHT22;4981;50.966;4.842;2023-05-21T04:42:43;13.00;1.00
9885;DHT22;4981;50.966;4.842;2023-05-21T04:45:11;14.00;1.00
9885;DHT22;4981;50.966;4.842;2023-05-21T04:47:39;13.00;1.00
9885;DHT22;4981;50.966;4.842;2023-05-21T04:50:07;13.00;1.00
9885;DHT22;4981;50.966;4.842;2023-05-21T04:52:34;13.10;1.00
9885;DHT22;4981;50.966;4.842;2023-05-21T04:55:02;13.10;1.00
9885;DHT22;4981;50.966;4.842;2023-05-21T04:57:29;13.10;1.00
9885;DHT22;4981;50.966;4.842;2023-05-21T04:59:56;13.30;1.00
9885;DHT22;4981;50.966;4.842;2023-05-21T05:02:23;13.20;1.00
9885;DHT22;4981;50.966;4.842;2023-05-21T05:04:51;13.20;1.00
9885;DHT22;4981;50.966;4.842;2023-05-21T05:07:18;13.20;1.00
9885;DHT22;4981;50.966;4.842;2023-05-21T05:09:46;13.30;1.00
9885;DHT22;4981;50.966;4.842;2023-05-21T05:12:13;13.20;1.00
9885;DHT22;4981;50.966;4.842;2023-05-21T05:14:39;13.30;1.00
9885;DHT22;4981;50.966;4.842;2023-05-21T05:17:06;13.30;1.00
9885;DHT22;4981;50.966;4.842;2023-05-21T05:19:35;13.40;1.00
9885;DHT22;4981;50.966;4.842;2023-05-21T05:22:03;12.60;1.00
9885;DHT22;4981;50.966;4.842;2023-05-21T05:24:30;13.40;1.00
9885;DHT22;4981;50.966;4.842;2023-05-21T05:26:57;13.40;1.00
9885;DHT22;4981;50.966;4.842;2023-05-21T05:29:24;13.40;1.00
9885;DHT22;4981;50.966;4.842;2023-05-21T05:31:51;13.50;1.00
9885;DHT22;4981;50.966;4.842;2023-05-21T05:34:18;13.60;1.00
9885;DHT22;4981;50.966;4.842;2023-05-21T05:36:46;15.20;1.00
9885;DHT22;4981;50.966;4.842;2023-05-21T05:39:14;13.60;1.00
9885;DHT22;4981;50.966;4.842;2023-05-21T05:41:41;13.40;1.00
9885;DHT22;4981;50.966;4.842;2023-05-21T05:44:08;13.50;1.00
9885;DHT22;4981;50.966;4.842;2023-05-21T05:46:35;13.50;1.00
9885;DHT22;4981;50.966;4.842;2023-05-21T05:49:02;13.60;1.00
9885;DHT22;4981;50.966;4.842;2023-05-21T05:51:29;13.80;1.00
9885;DHT22;4981;50.966;4.842;2023-05-21T05:53:56;13.80;1.00
9885;DHT22;4981;50.966;4.842;2023-05-21T05:56:27;13.90;1.00
9885;DHT22;4981;50.966;4.842;2023-05-21T05:58:54;13.90;1.00
9885;DHT22;4981;50.966;4.842;2023-05-21T06:01:21;13.90;1.00
9885;DHT22;4981;50.966;4.842;2023-05-21T06:03:49;13.00;1.00
9885;DHT22;4981;50.966;4.842;2023-05-21T06:06:16;14.10;1.00
9885;DHT22;4981;50.966;4.842;2023-05-21T06:08:43;14.10;1.00
9885;DHT22;4981;50.966;4.842;2023-05-21T06:11:10;14.10;1.00
9885;DHT22;4981;50.966;4.842;2023-05-21T06:13:39;14.20;1.00
9885;DHT22;4981;50.966;4.842;2023-05-21T06:16:06;14.30;1.00
9885;DHT22;4981;50.966;4.842;2023-05-21T06:18:36;14.30;1.00
9885;DHT22;4981;50.966;4.842;2023-05-21T06:21:02;14.40;1.00
9885;DHT22;4981;50.966;4.842;2023-05-21T06:23:30;14.50;1.00
9885;DHT22;4981;50.966;4.842;2023-05-21T06:25:57;13.30;1.00
9885;DHT22;4981;50.966;4.842;2023-05-21T06:28:24;14.60;1.00
9885;DHT22;4981;50.966;4.842;2023-05-21T06:30:53;14.70;1.00
9885;DHT22;4981;50.966;4.842;2023-05-21T06:33:20;14.70;1.00
9885;DHT22;4981;50.966;4.842;2023-05-21T06:35:47;14.80;1.00
9885;DHT22;4981;50.966;4.842;2023-05-21T06:38:14;14.90;1.00
9885;DHT22;4981;50.966;4.842;2023-05-21T06:40:41;15.00;1.00
9885;DHT22;4981;50.966;4.842;2023-05-21T06:43:09;15.10;1.00
9885;DHT22;4981;50.966;4.842;2023-05-21T06:45:36;15.20;1.00
9885;DHT22;4981;50.966;4.842;2023-05-21T06:48:05;15.30;1.00
9885;DHT22;4981;50.966;4.842;2023-05-21T06:50:32;15.40;1.00
9885;DHT22;4981;50.966;4.842;2023-05-21T06:52:59;15.50;1.00
9885;DHT22;4981;50.966;4.842;2023-05-21T06:55:26;15.80;1.00
9885;DHT22;4981;50.966;4.842;2023-05-21T06:57:53;16.00;1.00
9885;DHT22;4981;50.966;4.842;2023-05-21T07:00:20;15.90;1.00
9885;DHT22;4981;50.966;4.842;2023-05-21T07:02:47;15.90;1.00
9885;DHT22;4981;50.966;4.842;2023-05-21T07:05:15;16.00;1.00
9885;DHT22;4981;50.966;4.842;2023-05-21T07:07:42;16.10;1.00
9885;DHT22;4981;50.966;4.842;2023-05-21T07:10:09;16.30;1.00
9885;DHT22;4981;50.966;4.842;2023-05-21T07:12:36;16.30;1.00
9885;DHT22;4981;50.966;4.842;2023-05-21T07:15:06;16.30;1.00
9885;DHT22;4981;50.966;4.842;2023-05-21T07:17:33;16.60;1.00
9885;DHT22;4981;50.966;4.842;2023-05-21T07:20:00;16.60;1.00
9885;DHT22;4981;50.966;4.842;2023-05-21T07:22:29;16.50;1.00
9885;DHT22;4981;50.966;4.842;2023-05-21T07:24:56;16.40;1.00
9885;DHT22;4981;50.966;4.842;2023-05-21T07:27:23;16.30;1.00
9885;DHT22;4981;50.966;4.842;2023-05-21T07:29:49;16.90;1.00
9885;DHT22;4981;50.966;4.842;2023-05-21T07:32:16;16.80;1.00
9885;DHT22;4981;50.966;4.842;2023-05-21T07:34:43;16.50;1.00
9885;DHT22;4981;50.966;4.842;2023-05-21T07:37:11;16.40;1.00
9885;DHT22;4981;50.966;4.842;2023-05-21T07:39:40;16.70;1.00
9885;DHT22;4981;50.966;4.842;2023-05-21T07:42:07;17.20;1.00
9885;DHT22;4981;50.966;4.842;2023-05-21T07:44:33;17.90;1.00
9885;DHT22;4981;50.966;4.842;2023-05-21T07:47:00;17.50;1.00
9885;DHT22;4981;50.966;4.842;2023-05-21T07:49:27;16.90;1.00
9885;DHT22;4981;50.966;4.842;2023-05-21T07:51:54;16.80;1.00
9885;DHT22;4981;50.966;4.842;2023-05-21T07:54:22;16.80;1.00
9885;DHT22;4981;50.966;4.842;2023-05-21T07:56:50;17.00;1.00
9885;DHT22;4981;50.966;4.842;2023-05-21T07:59:17;16.80;1.00
9885;DHT22;4981;50.966;4.842;2023-05-21T08:01:44;16.90;1.00
9885;DHT22;4981;50.966;4.842;2023-05-21T08:04:11;16.90;1.00
9885;DHT22;4981;50.966;4.842;2023-05-21T08:06:38;17.10;1.00
9885;DHT22;4981;50.966;4.842;2023-05-21T08:09:05;17.10;1.00
9885;DHT22;4981;50.966;4.842;2023-05-21T08:11:35;17.00;1.00
9885;DHT22;4981;50.966;4.842;2023-05-21T08:14:07;16.90;1.00
9885;DHT22;4981;50.966;4.842;2023-05-21T08:16:34;17.00;1.00
9885;DHT22;4981;50.966;4.842;2023-05-21T08:19:02;17.20;1.00
9885;DHT22;4981;50.966;4.842;2023-05-21T08:21:29;17.20;1.00
9885;DHT22;4981;50.966;4.842;2023-05-21T08:23:57;17.30;1.00
9885;DHT22;4981;50.966;4.842;2023-05-21T08:26:24;17.70;1.00
9885;DHT22;4981;50.966;4.842;2023-05-21T08:28:51;17.40;1.00
9885;DHT22;4981;50.966;4.842;2023-05-21T08:31:20;17.30;1.00
9885;DHT22;4981;50.966;4.842;2023-05-21T08:33:50;17.20;1.00
9885;DHT22;4981;50.966;4.842;2023-05-21T08:36:17;17.30;1.00
9885;DHT22;4981;50.966;4.842;2023-05-21T08:38:44;17.50;1.00
9885;DHT22;4981;50.966;4.842;2023-05-21T08:41:11;17.40;1.00
9885;DHT22;4981;50.966;4.842;2023-05-21T08:43:39;17.30;1.00
9885;DHT22;4981;50.966;4.842;2023-05-21T08:46:06;17.40;1.00
9885;DHT22;4981;50.966;4.842;2023-05-21T08:48:36;17.40;1.00
9885;DHT22;4981;50.966;4.842;2023-05-21T08:51:03;17.50;1.00
9885;DHT22;4981;50.966;4.842;2023-05-21T08:53:32;17.50;1.00
9885;DHT22;4981;50.966;4.842;2023-05-21T08:55:59;17.70;1.00
9885;DHT22;4981;50.966;4.842;2023-05-21T08:58:27;17.80;1.00
9885;DHT22;4981;50.966;4.842;2023-05-21T09:00:55;17.90;1.00
9885;DHT22;4981;50.966;4.842;2023-05-21T09:03:23;18.00;1.00
9885;DHT22;4981;50.966;4.842;2023-05-21T09:05:52;17.90;1.00
9885;DHT22;4981;50.966;4.842;2023-05-21T09:08:23;17.90;1.00
9885;DHT22;4981;50.966;4.842;2023-05-21T09:10:52;18.20;1.00
9885;DHT22;4981;50.966;4.842;2023-05-21T09:13:20;18.10;1.00
9885;DHT22;4981;50.966;4.842;2023-05-21T09:15:47;18.00;1.00
9885;DHT22;4981;50.966;4.842;2023-05-21T09:18:16;18.10;1.00
9885;DHT22;4981;50.966;4.842;2023-05-21T09:20:43;18.10;1.00
9885;DHT22;4981;50.966;4.842;2023-05-21T09:23:16;18.20;1.00
9885;DHT22;4981;50.966;4.842;2023-05-21T09:25:45;18.40;1.00
9885;DHT22;4981;50.966;4.842;2023-05-21T09:28:12;18.60;1.00
9885;DHT22;4981;50.966;4.842;2023-05-21T09:30:43;18.90;1.00
9885;DHT22;4981;50.966;4.842;2023-05-21T09:33:11;18.70;1.00
9885;DHT22;4981;50.966;4.842;2023-05-21T09:35:44;18.70;1.00
9885;DHT22;4981;50.966;4.842;2023-05-21T09:38:13;18.60;1.00
9885;DHT22;4981;50.966;4.842;2023-05-21T09:40:43;18.70;1.00
9885;DHT22;4981;50.966;4.842;2023-05-21T09:43:13;18.70;1.00
9885;DHT22;4981;50.966;4.842;2023-05-21T09:45:49;18.80;1.00
9885;DHT22;4981;50.966;4.842;2023-05-21T09:48:16;18.70;1.00
9885;DHT22;4981;50.966;4.842;2023-05-21T09:50:44;18.90;1.00
9885;DHT22;4981;50.966;4.842;2023-05-21T09:53:13;18.90;1.00
9885;DHT22;4981;50.966;4.842;2023-05-21T09:55:39;19.00;1.00
9885;DHT22;4981;50.966;4.842;2023-05-21T09:58:09;19.10;1.00
9885;DHT22;4981;50.966;4.842;2023-05-21T10:00:37;19.10;1.00
9885;DHT22;4981;50.966;4.842;2023-05-21T10:03:08;18.90;1.00
9885;DHT22;4981;50.966;4.842;2023-05-21T10:05:35;18.90;1.00
9885;DHT22;4981;50.966;4.842;2023-05-21T10:08:03;19.30;1.00
9885;DHT22;4981;50.966;4.842;2023-05-21T10:10:37;19.40;1.00
9885;DHT22;4981;50.966;4.842;2023-05-21T10:13:09;19.50;1.00
9885;DHT22;4981;50.966;4.842;2023-05-21T10:15:45;19.50;1.00
9885;DHT22;4981;50.966;4.842;2023-05-21T10:18:14;19.70;1.00
9885;DHT22;4981;50.966;4.842;2023-05-21T10:20:41;19.80;1.00
9885;DHT22;4981;50.966;4.842;2023-05-21T10:23:09;19.80;1.00
9885;DHT22;4981;50.966;4.842;2023-05-21T10:25:39;19.90;1.00
9885;DHT22;4981;50.966;4.842;2023-05-21T10:28:06;20.10;1.00
9885;DHT22;4981;50.966;4.842;2023-05-21T10:30:35;20.20;1.00
9885;DHT22;4981;50.966;4.842;2023-05-21T10:33:03;21.50;1.00
9885;DHT22;4981;50.966;4.842;2023-05-21T10:35:31;20.40;1.00
9885;DHT22;4981;50.966;4.842;2023-05-21T10:38:02;20.40;1.00
9885;DHT22;4981;50.966;4.842;2023-05-21T10:40:30;20.20;1.00
9885;DHT22;4981;50.966;4.842;2023-05-21T10:46:27;20.10;1.00
9885;DHT22;4981;50.966;4.842;2023-05-21T10:49:11;20.30;1.00
9885;DHT22;4981;50.966;4.842;2023-05-21T10:51:47;20.30;1.00
9885;DHT22;4981;50.966;4.842;2023-05-21T10:54:49;20.50;1.00
9885;DHT22;4981;50.966;4.842;2023-05-21T10:57:41;20.60;1.00
9885;DHT22;4981;50.966;4.842;2023-05-21T11:00:12;20.20;1.00
9885;DHT22;4981;50.966;4.842;2023-05-21T11:02:42;20.20;1.00
9885;DHT22;4981;50.966;4.842;2023-05-21T11:05:10;20.20;1.00
9885;DHT22;4981;50.966;4.842;2023-05-21T11:07:50;20.40;1.00
9885;DHT22;4981;50.966;4.842;2023-05-21T11:10:29;20.50;1.00
9885;DHT22;4981;50.966;4.842;2023-05-21T11:13:11;20.60;1.00
9885;DHT22;4981;50.966;4.842;2023-05-21T11:16:06;20.80;1.00
9885;DHT22;4981;50.966;4.842;2023-05-21T11:18:57;21.20;1.00
9885;DHT22;4981;50.966;4.842;2023-05-21T11:21:32;21.30;1.00
9885;DHT22;4981;50.966;4.842;2023-05-21T11:24:04;21.40;1.00
9885;DHT22;4981;50.966;4.842;2023-05-21T11:27:03;21.40;1.00
9885;DHT22;4981;50.966;4.842;2023-05-21T11:29:52;21.30;1.00
9885;DHT22;4981;50.966;4.842;2023-05-21T11:32:21;21.50;1.00
9885;DHT22;4981;50.966;4.842;2023-05-21T11:34:50;21.60;1.00
9885;DHT22;4981;50.966;4.842;2023-05-21T11:37:27;21.50;1.00
9885;DHT22;4981;50.966;4.842;2023-05-21T11:39:56;21.70;1.00
9885;DHT22;4981;50.966;4.842;2023-05-21T11:42:28;21.60;1.00
9885;DHT22;4981;50.966;4.842;2023-05-21T11:44:56;21.60;1.00
9885;DHT22;4981;50.966;4.842;2023-05-21T11:47:24;21.80;1.00
9885;DHT22;4981;50.966;4.842;2023-05-21T11:49:53;21.80;1.00
9885;DHT22;4981;50.966;4.842;2023-05-21T11:52:20;21.90;1.00
9885;DHT22;4981;50.966;4.842;2023-05-21T11:54:49;22.10;1.00
9885;DHT22;4981;50.966;4.842;2023-05-21T11:57:20;22.30;1.00
9885;DHT22;4981;50.966;4.842;2023-05-21T11:59:48;22.60;1.00
9885;DHT22;4981;50.966;4.842;2023-05-21T12:02:17;23.10;1.00
9885;DHT22;4981;50.966;4.842;2023-05-21T12:04:45;23.10;1.00
9885;DHT22;4981;50.966;4.842;2023-05-21T12:07:15;23.10;1.00
9885;DHT22;4981;50.966;4.842;2023-05-21T12:09:43;23.00;1.00
9885;DHT22;4981;50.966;4.842;2023-05-21T12:12:11;23.10;1.00
9885;DHT22;4981;50.966;4.842;2023-05-21T12:14:42;23.20;1.00
9885;DHT22;4981;50.966;4.842;2023-05-21T12:17:09;23.60;1.00
9885;DHT22;4981;50.966;4.842;2023-05-21T12:19:38;24.00;1.00
9885;DHT22;4981;50.966;4.842;2023-05-21T12:22:05;24.10;1.00
9885;DHT22;4981;50.966;4.842;2023-05-21T12:24:35;24.10;1.00
9885;DHT22;4981;50.966;4.842;2023-05-21T12:27:05;23.90;1.00
9885;DHT22;4981;50.966;4.842;2023-05-21T12:29:35;24.30;1.00
9885;DHT22;4981;50.966;4.842;2023-05-21T12:32:04;24.40;1.00
9885;DHT22;4981;50.966;4.842;2023-05-21T12:34:39;24.20;1.00
9885;DHT22;4981;50.966;4.842;2023-05-21T12:37:08;23.90;1.00
9885;DHT22;4981;50.966;4.842;2023-05-21T12:39:43;23.80;1.00
9885;DHT22;4981;50.966;4.842;2023-05-21T12:42:11;23.90;1.00
9885;DHT22;4981;50.966;4.842;2023-05-21T12:44:38;24.60;1.00
9885;DHT22;4981;50.966;4.842;2023-05-21T12:47:06;25.10;1.00
9885;DHT22;4981;50.966;4.842;2023-05-21T12:49:34;25.60;1.00
9885;DHT22;4981;50.966;4.842;2023-05-21T12:52:07;25.70;1.00
9885;DHT22;4981;50.966;4.842;2023-05-21T12:54:36;26.10;6.80
9885;DHT22;4981;50.966;4.842;2023-05-21T12:57:09;26.50;3.30
9885;DHT22;4981;50.966;4.842;2023-05-21T12:59:47;26.50;2.30
9885;DHT22;4981;50.966;4.842;2023-05-21T13:02:18;27.10;1.00
9885;DHT22;4981;50.966;4.842;2023-05-21T13:04:45;27.10;1.00
9885;DHT22;4981;50.966;4.842;2023-05-21T13:07:13;26.90;2.60
9885;DHT22;4981;50.966;4.842;2023-05-21T13:09:40;26.80;1.00
9885;DHT22;4981;50.966;4.842;2023-05-21T13:12:09;27.70;1.10
9885;DHT22;4981;50.966;4.842;2023-05-21T13:14:37;27.80;1.00
9885;DHT22;4981;50.966;4.842;2023-05-21T13:17:04;27.90;1.00
9885;DHT22;4981;50.966;4.842;2023-05-21T13:19:30;28.10;1.00
9885;DHT22;4981;50.966;4.842;2023-05-21T13:21:57;27.90;1.00
9885;DHT22;4981;50.966;4.842;2023-05-21T13:24:25;27.70;1.00
9885;DHT22;4981;50.966;4.842;2023-05-21T13:26:52;27.20;1.00
9885;DHT22;4981;50.966;4.842;2023-05-21T13:29:20;27.80;1.00
9885;DHT22;4981;50.966;4.842;2023-05-21T13:31:47;28.50;1.00
9885;DHT22;4981;50.966;4.842;2023-05-21T13:34:14;28.90;1.00
9885;DHT22;4981;50.966;4.842;2023-05-21T13:36:41;28.80;1.00
9885;DHT22;4981;50.966;4.842;2023-05-21T13:39:08;28.70;1.00
9885;DHT22;4981;50.966;4.842;2023-05-21T13:41:35;28.20;1.00
9885;DHT22;4981;50.966;4.842;2023-05-21T13:44:02;28.30;1.00
9885;DHT22;4981;50.966;4.842;2023-05-21T13:46:31;28.20;1.00
9885;DHT22;4981;50.966;4.842;2023-05-21T13:48:58;28.70;1.00
9885;DHT22;4981;50.966;4.842;2023-05-21T13:51:25;28.60;1.00
9885;DHT22;4981;50.966;4.842;2023-05-21T13:53:55;28.40;1.00
9885;DHT22;4981;50.966;4.842;2023-05-21T13:56:21;28.40;1.00
9885;DHT22;4981;50.966;4.842;2023-05-21T13:58:48;27.20;1.00
9885;DHT22;4981;50.966;4.842;2023-05-21T14:01:15;28.80;1.00
9885;DHT22;4981;50.966;4.842;2023-05-21T14:03:44;28.60;1.00
9885;DHT22;4981;50.966;4.842;2023-05-21T14:06:11;29.20;1.00
9885;DHT22;4981;50.966;4.842;2023-05-21T14:08:38;29.60;1.00
9885;DHT22;4981;50.966;4.842;2023-05-21T14:11:06;28.60;1.00
9885;DHT22;4981;50.966;4.842;2023-05-21T14:13:32;29.20;1.00
9885;DHT22;4981;50.966;4.842;2023-05-21T14:15:59;29.90;1.00
9885;DHT22;4981;50.966;4.842;2023-05-21T14:18:26;29.70;1.00
9885;DHT22;4981;50.966;4.842;2023-05-21T14:20:55;29.40;1.00
9885;DHT22;4981;50.966;4.842;2023-05-21T14:23:22;30.20;1.00
9885;DHT22;4981;50.966;4.842;2023-05-21T14:25:49;30.50;1.00
9885;DHT22;4981;50.966;4.842;2023-05-21T14:28:16;30.20;1.00
9885;DHT22;4981;50.966;4.842;2023-05-21T14:30:42;30.50;1.00
9885;DHT22;4981;50.966;4.842;2023-05-21T14:33:09;30.30;1.00
9885;DHT22;4981;50.966;4.842;2023-05-21T14:35:38;30.70;1.00
9885;DHT22;4981;50.966;4.842;2023-05-21T14:38:07;30.70;1.00
9885;DHT22;4981;50.966;4.842;2023-05-21T14:40:34;30.50;1.00
9885;DHT22;4981;50.966;4.842;2023-05-21T14:43:01;30.70;1.00
9885;DHT22;4981;50.966;4.842;2023-05-21T14:45:28;30.80;1.00
9885;DHT22;4981;50.966;4.842;2023-05-21T14:47:57;30.80;1.00
9885;DHT22;4981;50.966;4.842;2023-05-21T14:50:24;30.90;1.00
9885;DHT22;4981;50.966;4.842;2023-05-21T14:52:51;30.30;1.00
9885;DHT22;4981;50.966;4.842;2023-05-21T14:55:19;30.10;1.00
9885;DHT22;4981;50.966;4.842;2023-05-21T14:57:47;29.80;1.00
9885;DHT22;4981;50.966;4.842;2023-05-21T15:00:14;29.80;1.00
9885;DHT22;4981;50.966;4.842;2023-05-21T15:02:41;29.70;1.00
9885;DHT22;4981;50.966;4.842;2023-05-21T15:05:08;29.60;1.00
9885;DHT22;4981;50.966;4.842;2023-05-21T15:07:35;29.10;1.00
9885;DHT22;4981;50.966;4.842;2023-05-21T15:10:02;29.50;1.00
9885;DHT22;4981;50.966;4.842;2023-05-21T15:12:30;28.00;1.00
9885;DHT22;4981;50.966;4.842;2023-05-21T15:14:57;28.20;1.00
9885;DHT22;4981;50.966;4.842;2023-05-21T15:17:24;29.20;1.00
9885;DHT22;4981;50.966;4.842;2023-05-21T15:19:51;30.50;1.00
9885;DHT22;4981;50.966;4.842;2023-05-21T15:22:18;30.00;1.00
9885;DHT22;4981;50.966;4.842;2023-05-21T15:24:45;29.40;1.00
9885;DHT22;4981;50.966;4.842;2023-05-21T15:27:13;28.30;1.00
9885;DHT22;4981;50.966;4.842;2023-05-21T15:29:41;28.50;1.00
9885;DHT22;4981;50.966;4.842;2023-05-21T15:32:10;28.90;1.00
9885;DHT22;4981;50.966;4.842;2023-05-21T15:34:37;29.70;1.00
9885;DHT22;4981;50.966;4.842;2023-05-21T15:37:04;30.10;1.00
9885;DHT22;4981;50.966;4.842;2023-05-21T15:39:31;29.50;1.00
9885;DHT22;4981;50.966;4.842;2023-05-21T15:41:58;29.80;1.00
9885;DHT22;4981;50.966;4.842;2023-05-21T15:44:25;29.60;1.00
9885;DHT22;4981;50.966;4.842;2023-05-21T15:46:53;29.60;1.00
9885;DHT22;4981;50.966;4.842;2023-05-21T15:49:20;29.30;1.00
9885;DHT22;4981;50.966;4.842;2023-05-21T15:51:47;30.00;1.00
9885;DHT22;4981;50.966;4.842;2023-05-21T15:54:14;30.00;1.00
9885;DHT22;4981;50.966;4.842;2023-05-21T15:56:43;29.90;1.00
9885;DHT22;4981;50.966;4.842;2023-05-21T15:59:10;29.40;1.00
9885;DHT22;4981;50.966;4.842;2023-05-21T16:01:37;29.10;1.00
9885;DHT22;4981;50.966;4.842;2023-05-21T16:04:05;29.10;1.00
9885;DHT22;4981;50.966;4.842;2023-05-21T16:06:32;29.50;1.00
9885;DHT22;4981;50.966;4.842;2023-05-21T16:09:00;29.70;1.00
9885;DHT22;4981;50.966;4.842;2023-05-21T16:11:27;29.30;1.00
9885;DHT22;4981;50.966;4.842;2023-05-21T16:13:54;29.10;1.00
9885;DHT22;4981;50.966;4.842;2023-05-21T16:16:21;29.60;1.00
9885;DHT22;4981;50.966;4.842;2023-05-21T16:18:48;29.70;1.00
9885;DHT22;4981;50.966;4.842;2023-05-21T16:21:17;29.30;1.00
9885;DHT22;4981;50.966;4.842;2023-05-21T16:23:44;29.40;1.00
9885;DHT22;4981;50.966;4.842;2023-05-21T16:26:11;28.70;1.00
9885;DHT22;4981;50.966;4.842;2023-05-21T16:28:38;28.70;1.00